createdAt,value
2019-02-05T00:01:48.415Z,98858.52
2019-02-05T00:04:18.731Z,98845.97
2019-02-05T00:06:49.156Z,98835.55
2019-02-05T00:09:19.582Z,98825.39
2019-02-05T00:11:49.955Z,98826.45
2019-02-05T00:14:20.322Z,98826.28
2019-02-05T00:16:50.689Z,98822.19
2019-02-05T00:19:20.948Z,98824.27
2019-02-05T00:21:51.404Z,98825.23
2019-02-05T00:24:21.875Z,98833.08
2019-02-05T00:26:52.143Z,98845.62
2019-02-05T00:29:22.839Z,98849.30
2019-02-05T00:31:53.223Z,98860.58
2019-02-05T00:34:23.528Z,98852.12
2019-02-05T00:36:53.851Z,98854.81
2019-02-05T00:39:24.325Z,98853.30
2019-02-05T00:41:55.060Z,98855.09
2019-02-05T00:44:25.276Z,98863.14
2019-02-05T00:46:55.591Z,98857.03
2019-02-05T00:49:25.948Z,98864.14
2019-02-05T00:51:56.171Z,98865.19
2019-02-05T00:54:26.617Z,98861.70
2019-02-05T00:56:57.109Z,98863.19
2019-02-05T00:59:27.502Z,98859.31
2019-02-05T01:01:57.876Z,98860.62
2019-02-05T01:04:28.186Z,98858.73
2019-02-05T01:06:58.642Z,98849.64
2019-02-05T01:09:29.510Z,98845.50
2019-02-05T01:11:59.921Z,98842.87
2019-02-05T01:14:30.187Z,98836.53
2019-02-05T01:17:01.609Z,98841.75
2019-02-05T01:19:32.008Z,98844.97
2019-02-05T01:22:02.363Z,98833.64
2019-02-05T01:24:32.602Z,98831.99
2019-02-05T01:27:03.024Z,98834.42
2019-02-05T01:29:33.276Z,98828.50
2019-02-05T01:32:03.630Z,98827.36
2019-02-05T01:34:33.864Z,98832.44
2019-02-05T01:37:23.286Z,98837.02
2019-02-05T01:43:48.570Z,98835.48
2019-02-05T01:46:30.795Z,98826.39
2019-02-05T01:49:20.212Z,98812.97
2019-02-05T01:52:02.294Z,98819.98
2019-02-05T01:54:51.709Z,98803.41
2019-02-05T01:57:34.338Z,98795.17
2019-02-05T02:00:26.261Z,98797.84
2019-02-05T02:03:08.928Z,98795.88
2019-02-05T02:05:58.433Z,98756.11
2019-02-05T02:08:40.310Z,98793.05
2019-02-05T02:11:29.708Z,98786.50
2019-02-05T02:14:11.741Z,98786.81
2019-02-05T02:20:02.370Z,98715.58
2019-02-05T02:22:44.577Z,98718.48
2019-02-05T02:25:34.429Z,98780.18
2019-02-05T02:28:16.511Z,98781.18
2019-02-05T02:31:05.911Z,98716.12
2019-02-05T02:33:47.725Z,98778.92
2019-02-05T02:36:37.137Z,98782.50
2019-02-05T02:39:19.170Z,98783.23
2019-02-05T02:45:17.210Z,98724.05
2019-02-05T02:48:25.601Z,98747.39
2019-02-05T02:51:07.317Z,98762.57
2019-02-05T02:53:56.729Z,98754.20
2019-02-05T02:56:38.632Z,98701.71
2019-02-05T02:59:27.982Z,98747.34
2019-02-05T03:02:11.892Z,98742.48
2019-02-05T03:05:01.382Z,98762.69
2019-02-05T03:07:43.923Z,98757.58
2019-02-05T03:10:33.415Z,98749.06
2019-02-05T03:13:15.404Z,98748.36
2019-02-05T03:16:05.296Z,98739.47
2019-02-05T03:18:47.674Z,98749.25
2019-02-05T03:21:37.003Z,98692.75
2019-02-05T03:24:20.398Z,98754.81
2019-02-05T03:27:17.254Z,98756.06
2019-02-05T03:29:53.473Z,98719.19
2019-02-05T03:32:42.965Z,98777.26
2019-02-05T03:35:25.352Z,98782.28
2019-02-05T03:38:14.838Z,98789.62
2019-02-05T03:41:05.053Z,98778.97
2019-02-05T03:43:47.490Z,98765.08
2019-02-05T03:46:36.975Z,98764.98
2019-02-05T03:53:01.387Z,98782.07
2019-02-05T03:56:29.041Z,98785.50
2019-02-05T04:06:39.250Z,98750.23
2019-02-05T04:09:58.833Z,98766.44
2019-02-05T04:13:19.403Z,98763.29
2019-02-05T04:16:26.407Z,98783.22
2019-02-05T04:19:36.393Z,98781.47
2019-02-05T04:22:43.663Z,98779.59
2019-02-05T04:26:17.285Z,98777.39
2019-02-05T04:29:48.946Z,98784.05
2019-02-05T04:33:14.685Z,98783.48
2019-02-05T04:36:53.697Z,98800.28
2019-02-05T04:40:02.250Z,98801.83
2019-02-05T04:43:28.366Z,98796.19
2019-02-05T04:46:22.652Z,98796.34
2019-02-05T04:49:40.755Z,98802.86
2019-02-05T04:53:25.456Z,98804.91
2019-02-05T04:57:14.341Z,98808.58
2019-02-05T05:00:45.070Z,98808.66
2019-02-05T05:03:55.450Z,98805.62
2019-02-05T05:07:27.057Z,98801.20
2019-02-05T05:10:01.588Z,98812.05
2019-02-05T05:12:32.450Z,98810.08
2019-02-05T05:15:02.866Z,98808.06
2019-02-05T05:17:33.288Z,98816.15
2019-02-05T05:20:03.715Z,98815.32
2019-02-05T05:22:34.111Z,98815.55
2019-02-05T05:25:05.532Z,98815.48
2019-02-05T05:27:35.942Z,98813.81
2019-02-05T05:30:13.423Z,98821.98
2019-02-05T05:32:43.877Z,98824.58
2019-02-05T05:35:14.496Z,98830.55
2019-02-05T05:37:44.696Z,98826.80
2019-02-05T05:40:15.288Z,98816.77
2019-02-05T05:42:45.649Z,98832.55
2019-02-05T05:45:17.166Z,98828.00
2019-02-05T05:47:47.578Z,98833.69
2019-02-05T05:50:21.196Z,98832.84
2019-02-05T05:52:50.243Z,98840.89
2019-02-05T05:55:20.813Z,98831.52
2019-02-05T05:57:51.318Z,98827.84
2019-02-05T06:00:22.022Z,98833.50
2019-02-05T06:02:52.436Z,98832.52
2019-02-05T06:05:26.590Z,98831.12
2019-02-05T06:07:57.054Z,98837.75
2019-02-05T06:10:27.526Z,98841.02
2019-02-05T06:12:58.207Z,98841.87
2019-02-05T06:15:28.677Z,98850.67
2019-02-05T06:17:59.133Z,98852.25
2019-02-05T06:20:29.614Z,98855.45
2019-02-05T06:23:00.153Z,98855.33
2019-02-05T06:25:31.650Z,98859.20
2019-02-05T06:28:02.044Z,98871.86
2019-02-05T06:30:32.457Z,98871.50
2019-02-05T06:33:02.911Z,98869.08
2019-02-05T06:35:33.711Z,98870.08
2019-02-05T06:38:05.320Z,98870.28
2019-02-05T06:40:35.769Z,98874.02
2019-02-05T06:43:06.422Z,98885.44
2019-02-05T06:45:36.901Z,98888.23
2019-02-05T06:48:07.477Z,98891.96
2019-02-05T06:50:39.378Z,98886.64
2019-02-05T06:53:09.671Z,98887.28
2019-02-05T06:55:40.218Z,98894.56
2019-02-05T06:58:16.724Z,98892.61
2019-02-05T07:00:53.160Z,98891.41
2019-02-05T07:03:23.678Z,98888.56
2019-02-05T07:05:54.004Z,98890.30
2019-02-05T07:08:24.555Z,98898.27
2019-02-05T07:10:55.238Z,98899.73
2019-02-05T07:13:25.666Z,98898.27
2019-02-05T07:15:56.003Z,98906.06
2019-02-05T07:18:26.254Z,98905.77
2019-02-05T07:20:56.773Z,98904.73
2019-02-05T07:23:27.083Z,98916.45
2019-02-05T07:25:57.327Z,98920.88
2019-02-05T07:28:28.775Z,98923.70
2019-02-05T07:31:00.639Z,98924.99
2019-02-05T07:33:31.034Z,98928.96
2019-02-05T07:36:01.576Z,98931.09
2019-02-05T07:38:32.050Z,98924.45
2019-02-05T07:41:02.431Z,98920.20
2019-02-05T07:43:32.788Z,98909.16
2019-02-05T07:46:03.254Z,98907.58
2019-02-05T07:48:33.924Z,98910.45
2019-02-05T07:51:04.471Z,98923.56
2019-02-05T07:53:35.169Z,98934.23
2019-02-05T07:56:05.861Z,98936.20
2019-02-05T07:58:36.234Z,98922.23
2019-02-05T08:01:06.841Z,98921.91
2019-02-05T08:03:37.456Z,98922.88
2019-02-05T08:06:07.958Z,98925.92
2019-02-05T08:08:39.385Z,98928.75
2019-02-05T08:11:09.716Z,98929.22
2019-02-05T08:13:40.185Z,98937.26
2019-02-05T08:16:10.620Z,98938.03
2019-02-05T08:18:40.976Z,98935.28
2019-02-05T08:21:11.561Z,98937.89
2019-02-05T08:23:42.017Z,98925.42
2019-02-05T08:26:14.482Z,98916.05
2019-02-05T08:28:44.994Z,98911.00
2019-02-05T08:31:15.410Z,98916.87
2019-02-05T08:33:46.186Z,98916.18
2019-02-05T08:36:16.595Z,98914.25
2019-02-05T08:38:47.028Z,98915.06
2019-02-05T08:41:17.377Z,98912.77
2019-02-05T08:43:47.836Z,98911.37
2019-02-05T08:46:18.263Z,98913.34
2019-02-05T08:48:48.700Z,98918.48
2019-02-05T08:51:19.089Z,98919.56
2019-02-05T08:53:49.426Z,98929.27
2019-02-05T08:56:19.980Z,98950.73
2019-02-05T08:58:50.387Z,98955.48
2019-02-05T09:01:20.986Z,98957.14
2019-02-05T09:03:51.336Z,98957.09
2019-02-05T09:06:21.882Z,98951.27
2019-02-05T09:08:52.333Z,98959.55
2019-02-05T09:11:22.931Z,98956.66
2019-02-05T09:13:53.465Z,98961.77
2019-02-05T09:16:25.209Z,98964.50
2019-02-05T09:18:55.728Z,98971.44
2019-02-05T09:21:26.326Z,98966.23
2019-02-05T09:23:56.856Z,98973.84
2019-02-05T09:26:27.251Z,98969.75
2019-02-05T09:28:57.758Z,98967.81
2019-02-05T09:31:28.180Z,98967.86
2019-02-05T09:33:58.711Z,98966.41
2019-02-05T09:36:29.221Z,98967.86
2019-02-05T09:38:59.646Z,98969.52
2019-02-05T09:41:30.076Z,98963.81
2019-02-05T09:44:00.504Z,98964.63
2019-02-05T09:46:32.036Z,98968.42
2019-02-05T09:49:02.277Z,98970.94
2019-02-05T09:51:34.567Z,98964.50
2019-02-05T09:54:05.106Z,98979.00
2019-02-05T09:56:35.647Z,98987.56
2019-02-05T09:59:06.117Z,98985.44
2019-02-05T10:01:36.598Z,98993.17
2019-02-05T10:04:07.393Z,98996.78
2019-02-05T10:06:37.596Z,98991.52
2019-02-05T10:09:09.795Z,98993.81
2019-02-05T10:11:40.347Z,98996.44
2019-02-05T10:14:11.114Z,98996.63
2019-02-05T10:16:41.763Z,99004.66
2019-02-05T10:19:12.616Z,98995.13
2019-02-05T10:21:43.257Z,98983.98
2019-02-05T10:24:13.797Z,98997.42
2019-02-05T10:26:44.199Z,98988.89
2019-02-05T10:29:15.788Z,98993.81
2019-02-05T10:31:46.323Z,98982.78
2019-02-05T10:34:16.989Z,98984.59
2019-02-05T10:36:47.587Z,98981.45
2019-02-05T10:39:18.215Z,98963.40
2019-02-05T10:41:48.773Z,98966.15
2019-02-05T10:44:19.273Z,98955.70
2019-02-05T10:46:49.998Z,98961.06
2019-02-05T10:49:20.470Z,98963.02
2019-02-05T10:51:50.954Z,98967.45
2019-02-05T10:54:21.219Z,98971.72
2019-02-05T10:56:51.787Z,98974.72
2019-02-05T10:59:22.146Z,98976.73
2019-02-05T11:01:52.777Z,98969.51
2019-02-05T11:04:23.276Z,98971.22
2019-02-05T11:06:53.847Z,98968.94
2019-02-05T11:09:24.446Z,98961.58
2019-02-05T11:11:54.911Z,98959.56
2019-02-05T11:14:25.462Z,98963.28
2019-02-05T11:16:56.029Z,98966.81
2019-02-05T11:19:26.575Z,98964.87
2019-02-05T11:21:57.252Z,98962.36
2019-02-05T11:24:27.694Z,98959.17
2019-02-05T11:26:58.270Z,98955.92
2019-02-05T11:29:29.731Z,98961.84
2019-02-05T11:32:00.163Z,98957.80
2019-02-05T11:34:30.649Z,98962.72
2019-02-05T11:37:01.146Z,98961.57
2019-02-05T11:39:31.620Z,98968.83
2019-02-05T11:42:02.130Z,98966.88
2019-02-05T11:44:44.895Z,98970.52
2019-02-05T11:47:15.613Z,98972.87
2019-02-05T11:49:46.104Z,98966.77
2019-02-05T11:52:16.623Z,98965.81
2019-02-05T11:54:47.079Z,98958.92
2019-02-05T11:57:17.551Z,98954.85
2019-02-05T11:59:48.064Z,98949.40
2019-02-05T12:02:18.558Z,98949.04
2019-02-05T12:04:48.832Z,98951.50
2019-02-05T12:07:19.274Z,98948.90
2019-02-05T12:09:49.838Z,98948.97
2019-02-05T12:12:21.495Z,98945.08
2019-02-05T12:14:53.251Z,98942.30
2019-02-05T12:17:23.728Z,98939.93
2019-02-05T12:19:55.654Z,98941.94
2019-02-05T12:22:32.020Z,98933.31
2019-02-05T12:25:05.931Z,98925.83
2019-02-05T12:27:36.373Z,98928.63
2019-02-05T12:30:24.192Z,98940.77
2019-02-05T12:32:56.873Z,98926.25
2019-02-05T12:35:27.734Z,98921.20
2019-02-05T12:38:00.320Z,98927.44
2019-02-05T12:40:36.687Z,98924.76
2019-02-05T12:43:07.959Z,98931.42
2019-02-05T12:45:38.708Z,98929.22
2019-02-05T12:48:09.682Z,98929.02
2019-02-05T12:50:40.545Z,98933.27
2019-02-05T12:53:12.192Z,98930.06
2019-02-05T12:55:43.909Z,98926.17
2019-02-05T12:58:14.405Z,98925.56
2019-02-05T13:00:59.142Z,98925.00
2019-02-05T13:03:26.270Z,98920.50
2019-02-05T13:05:56.912Z,98921.55
2019-02-05T13:08:27.339Z,98926.87
2019-02-05T13:10:57.965Z,98917.53
2019-02-05T13:13:28.527Z,98913.64
2019-02-05T13:15:58.848Z,98910.77
2019-02-05T13:18:30.345Z,98910.59
2019-02-05T13:21:00.803Z,98914.13
2019-02-05T13:23:31.229Z,98916.67
2019-02-05T13:26:01.678Z,98917.88
2019-02-05T13:28:32.265Z,98917.33
2019-02-05T13:31:08.023Z,98905.16
2019-02-05T13:33:35.273Z,98905.95
2019-02-05T13:36:10.201Z,98906.53
2019-02-05T13:38:40.698Z,98906.62
2019-02-05T13:41:11.376Z,98900.03
2019-02-05T13:43:42.039Z,98901.03
2019-02-05T13:46:12.744Z,98904.62
2019-02-05T13:48:43.286Z,98905.94
2019-02-05T13:51:14.017Z,98903.78
2019-02-05T13:53:44.560Z,98907.90
2019-02-05T13:56:15.422Z,98902.03
2019-02-05T13:58:45.945Z,98914.50
2019-02-05T14:01:19.939Z,98907.08
2019-02-05T14:03:48.528Z,98905.10
2019-02-05T14:06:18.928Z,98905.59
2019-02-05T14:08:49.321Z,98905.44
2019-02-05T14:11:19.813Z,98901.47
2019-02-05T14:13:50.330Z,98909.78
2019-02-05T14:16:20.753Z,98905.38
2019-02-05T14:18:55.503Z,98905.27
2019-02-05T14:21:23.295Z,98908.23
2019-02-05T14:23:55.063Z,98906.20
2019-02-05T14:26:25.379Z,98910.66
2019-02-05T14:28:55.937Z,98905.20
2019-02-05T14:31:31.343Z,98904.50
2019-02-05T14:33:59.004Z,98906.64
2019-02-05T14:36:30.473Z,98906.27
2019-02-05T14:39:01.937Z,98905.38
2019-02-05T14:41:32.307Z,98901.47
2019-02-05T14:44:02.770Z,98905.55
2019-02-05T14:46:33.302Z,98908.34
2019-02-05T14:49:04.069Z,98908.58
2019-02-05T14:51:34.559Z,98906.91
2019-02-05T14:54:05.023Z,98906.09
2019-02-05T14:56:35.482Z,98902.73
2019-02-05T14:59:06.156Z,98902.13
2019-02-05T15:01:43.183Z,98901.75
2019-02-05T15:04:11.039Z,98903.06
2019-02-05T15:06:41.498Z,98904.28
2019-02-05T15:09:12.431Z,98897.58
2019-02-05T15:11:43.010Z,98902.67
2019-02-05T15:14:13.738Z,98907.95
2019-02-05T15:16:44.663Z,98903.41
2019-02-05T15:19:15.147Z,98905.20
2019-02-05T15:21:45.793Z,98908.83
2019-02-05T15:24:17.170Z,98907.88
2019-02-05T15:26:47.653Z,98906.55
2019-02-05T15:29:18.346Z,98903.06
2019-02-05T15:31:54.648Z,98906.50
2019-02-05T15:34:32.109Z,98908.77
2019-02-05T15:37:02.482Z,98904.81
2019-02-05T15:39:32.852Z,98904.16
2019-02-05T15:42:03.430Z,98909.06
2019-02-05T15:44:33.821Z,98899.25
2019-02-05T15:47:04.493Z,98899.71
2019-02-05T15:49:34.864Z,98901.89
2019-02-05T15:52:05.648Z,98904.02
2019-02-05T15:54:36.567Z,98898.08
2019-02-05T15:57:07.187Z,98902.87
2019-02-05T15:59:37.592Z,98897.47
2019-02-05T16:02:08.472Z,98901.80
2019-02-05T16:04:38.786Z,98900.92
2019-02-05T16:07:10.124Z,98898.23
2019-02-05T16:09:40.438Z,98895.58
2019-02-05T16:12:10.930Z,98895.04
2019-02-05T16:14:41.299Z,98899.75
2019-02-05T16:17:11.742Z,98897.49
2019-02-05T16:19:42.054Z,98893.17
2019-02-05T16:22:12.758Z,98896.45
2019-02-05T16:24:43.101Z,98908.37
2019-02-05T16:27:13.332Z,98908.26
2019-02-05T16:29:43.751Z,98905.45
2019-02-05T16:32:17.796Z,98907.27
2019-02-05T16:34:46.257Z,98910.42
2019-02-05T16:37:16.572Z,98910.57
2019-02-05T16:39:47.270Z,98916.64
2019-02-05T16:42:17.666Z,98912.34
2019-02-05T16:44:48.114Z,98917.20
2019-02-05T16:47:18.380Z,98918.02
2019-02-05T16:49:49.266Z,98919.09
2019-02-05T16:52:19.747Z,98918.28
2019-02-05T16:54:52.499Z,98917.70
2019-02-05T16:57:23.138Z,98939.00
2019-02-05T16:59:53.530Z,98925.96
2019-02-05T17:02:28.989Z,98928.09
2019-02-05T17:04:57.509Z,98923.80
2019-02-05T17:07:27.801Z,98925.05
2019-02-05T17:09:58.398Z,98926.97
2019-02-05T17:12:28.875Z,98931.09
2019-02-05T17:14:59.303Z,98930.08
2019-02-05T17:17:32.066Z,98926.44
2019-02-05T17:20:02.530Z,98922.81
2019-02-05T17:22:33.038Z,98921.14
2019-02-05T17:25:03.585Z,98929.88
2019-02-05T17:27:34.208Z,98927.99
2019-02-05T17:30:09.031Z,98918.95
2019-02-05T17:32:40.532Z,98923.22
2019-02-05T17:35:11.820Z,98925.61
2019-02-05T17:37:42.392Z,98929.13
2019-02-05T17:40:19.327Z,98927.40
2019-02-05T17:42:52.213Z,98932.03
2019-02-05T17:45:31.774Z,98930.10
2019-02-05T17:48:05.734Z,98933.27
2019-02-05T17:50:46.695Z,98936.09
2019-02-05T17:53:21.467Z,98935.38
2019-02-05T17:56:00.037Z,98935.09
2019-02-05T17:58:32.915Z,98939.42
2019-02-05T18:01:14.948Z,98937.50
2019-02-05T18:03:46.916Z,98947.11
2019-02-05T18:06:17.226Z,98944.53
2019-02-05T18:08:47.732Z,98942.61
2019-02-05T18:11:18.918Z,98943.22
2019-02-05T18:13:51.227Z,98946.06
2019-02-05T18:16:22.880Z,98941.36
2019-02-05T18:18:54.063Z,98942.15
2019-02-05T18:21:25.755Z,98941.02
2019-02-05T18:23:57.035Z,98948.49
2019-02-05T18:26:27.960Z,98952.20
2019-02-05T18:28:58.458Z,98957.78
2019-02-05T18:31:29.523Z,98961.00
2019-02-05T18:34:00.286Z,98962.77
2019-02-05T18:36:31.248Z,98963.71
2019-02-05T18:39:02.503Z,98963.13
2019-02-05T18:41:33.741Z,98963.63
2019-02-05T18:44:06.137Z,98964.19
2019-02-05T18:46:37.350Z,98959.66
2019-02-05T18:49:08.430Z,98960.41
2019-02-05T18:51:40.026Z,98962.16
2019-02-05T18:54:11.109Z,98955.73
2019-02-05T18:56:43.359Z,98957.78
2019-02-05T18:59:14.531Z,98957.98
2019-02-05T19:01:45.863Z,98953.28
2019-02-05T19:04:18.977Z,98956.03
2019-02-05T19:06:50.055Z,98955.47
2019-02-05T19:09:26.261Z,98955.78
2019-02-05T19:11:56.762Z,98956.78
2019-02-05T19:14:30.786Z,98955.16
2019-02-05T19:17:01.656Z,98954.31
2019-02-05T19:19:34.310Z,98958.05
2019-02-05T19:22:05.385Z,98954.73
2019-02-05T19:24:48.882Z,98952.89
2019-02-05T19:27:20.275Z,98957.86
2019-02-05T19:29:52.070Z,98958.77
2019-02-05T19:49:29.849Z,98960.84
2019-02-05T19:52:01.031Z,98959.06
2019-02-05T19:54:32.705Z,98955.44
2019-02-05T19:57:03.986Z,98948.78
2019-02-05T19:59:35.406Z,98942.77
2019-02-05T20:02:08.039Z,98941.37
2019-02-05T20:04:39.144Z,98944.58
2019-02-05T20:07:11.646Z,98944.33
2019-02-05T20:09:44.457Z,98942.55
2019-02-05T20:12:17.446Z,98942.55
2019-02-05T20:14:48.621Z,98945.66
2019-02-05T20:17:22.193Z,98940.45
2019-02-05T20:19:54.652Z,98938.34
2019-02-05T20:22:37.278Z,98941.33
2019-02-05T20:25:11.018Z,98938.22
2019-02-05T20:27:42.621Z,98935.83
2019-02-05T20:30:16.422Z,98933.14
2019-02-05T20:32:48.425Z,98928.22
2019-02-05T20:35:20.617Z,98933.06
2019-02-05T20:37:52.514Z,98932.74
2019-02-05T20:40:23.855Z,98939.39
2019-02-05T20:42:58.332Z,98936.78
2019-02-05T20:45:29.779Z,98938.50
2019-02-05T20:48:02.520Z,98939.13
2019-02-05T20:50:33.795Z,98941.06
2019-02-05T20:53:13.359Z,98942.36
2019-02-05T20:55:39.083Z,98941.59
2019-02-05T20:58:10.592Z,98944.00
2019-02-05T21:00:41.804Z,98944.84
2019-02-05T21:03:13.008Z,98939.52
2019-02-05T21:05:44.118Z,98946.20
2019-02-05T21:08:15.039Z,98945.25
2019-02-05T21:10:45.856Z,98949.58
2019-02-05T21:13:16.560Z,98953.74
2019-02-05T21:15:47.419Z,98951.20
2019-02-05T21:18:18.293Z,98946.18
2019-02-05T21:20:48.801Z,98947.02
2019-02-05T21:23:19.105Z,98957.73
2019-02-05T21:25:49.554Z,98961.58
2019-02-05T21:28:20.142Z,98957.79
2019-02-05T21:30:50.486Z,98965.84
2019-02-05T21:33:21.185Z,98971.45
2019-02-05T21:35:51.542Z,98969.33
2019-02-05T21:38:21.974Z,98967.42
2019-02-05T21:40:52.264Z,98959.67
2019-02-05T21:43:22.648Z,98959.00
2019-02-05T21:45:52.869Z,98965.81
2019-02-05T21:48:23.527Z,98970.56
2019-02-05T21:50:54.082Z,98964.39
2019-02-05T21:53:24.432Z,98959.23
2019-02-05T21:55:54.767Z,98966.10
2019-02-05T21:58:25.189Z,98964.45
2019-02-05T22:00:55.395Z,98963.02
2019-02-05T22:03:25.862Z,98967.88
2019-02-05T22:05:56.236Z,98961.62
2019-02-05T22:08:27.790Z,98958.42
2019-02-05T22:10:58.083Z,98959.11
2019-02-05T22:13:28.384Z,98952.52
2019-02-05T22:15:58.693Z,98956.01
2019-02-05T22:18:29.147Z,98952.44
2019-02-05T22:20:59.458Z,98952.02
2019-02-05T22:23:29.843Z,98953.03
2019-02-05T22:26:00.240Z,98947.35
2019-02-05T22:28:30.617Z,98941.89
2019-02-05T22:31:02.463Z,98940.08
2019-02-05T22:33:32.858Z,98940.09
2019-02-05T22:36:03.448Z,98936.15
2019-02-05T22:38:33.981Z,98934.66
2019-02-05T22:41:04.526Z,98927.08
2019-02-05T22:43:34.867Z,98928.67
2019-02-05T22:46:05.500Z,98921.44
2019-02-05T22:48:36.184Z,98922.69
2019-02-05T22:51:06.500Z,98923.20
2019-02-05T22:53:37.204Z,98917.11
2019-02-05T22:56:07.606Z,98919.69
2019-02-05T22:58:38.010Z,98914.34
2019-02-05T23:02:05.370Z,98912.63
2019-02-05T23:05:20.136Z,98913.17
2019-02-05T23:07:50.859Z,98908.14
2019-02-05T23:10:41.952Z,98905.01
2019-02-05T23:13:16.181Z,98907.95
2019-02-05T23:15:49.523Z,98900.97
2019-02-05T23:18:20.327Z,98901.20
2019-02-05T23:20:53.795Z,98895.14
2019-02-05T23:23:22.981Z,98893.20
2019-02-05T23:25:53.367Z,98887.33
2019-02-05T23:28:23.933Z,98904.46
2019-02-05T23:30:54.714Z,98884.60
2019-02-05T23:33:25.108Z,98886.77
2019-02-05T23:35:55.376Z,98879.60
2019-02-05T23:38:29.721Z,98878.30
2019-02-05T23:40:57.983Z,98884.06
2019-02-05T23:43:28.387Z,98878.59
2019-02-05T23:46:01.739Z,98884.70
2019-02-05T23:48:30.817Z,98880.10
2019-02-05T23:51:01.218Z,98888.63
2019-02-05T23:53:31.495Z,98883.64
2019-02-05T23:56:01.817Z,98885.38
2019-02-05T23:58:32.408Z,98890.00
